MMMY/MTY METAR and TAF weather

Enter ICAO airport designator
Station Type Date Time Source
MMMY METAR 2021/06/23 00:23 UTC NOAA

MMMY 230023Z 08009KT 5SM -TSRA BKN035CB OVC070 23/21 A2993 RMK 8/96/


Station Type Date Time Source
MMMY Decoded METAR 2021/06/23 00:23 UTC NOAA

Monterrey / Gen Maria, Mexico (MMMY) 25-47N 100-06W
Jun 22, 2021 - 08:23 PM EDT / 2021.06.23 0023 UTC
Wind: from the E (080 degrees) at 10 MPH (9 KT):0
Visibility: 5 mile(s):0
Sky conditions: overcast
Weather: light rain with thunder; Cumulonimbus clouds observed
Temperature: 73 F (23 C)
Dew Point: 69 F (21 C)
Relative Humidity: 88%
Pressure (altimeter): 29.93 in. Hg (1013 hPa)
ob: MMMY 230023Z 08009KT 5SM -TSRA BKN035CB OVC070 23/21 A2993 RMK 8/96/
cycle: 0

Station Type Date Time Source
MMMY TAF 2021/06/22 18:47 UTC NOAA

TAF MMMY 221740Z 2218/2324 32010KT P6SM SCT030 BKN070 TX34/2221Z TN26/2312Z
BECMG 2221/2222 BKN030CB
TEMPO 2223/2303 4SM TSRA OVC030CB
FM230300 13005KT 5SM -RA BKN015 OVC090
FM230900 09005KT P6SM SCT020 BKN090
TEMPO 2310/2314 OVC020
FM231400 13015KT P6SM SCT015 BKN040

Example: see airport list